createdAt,value
2022-10-03T00:00:16.027Z,1.02
2022-10-03T00:02:50.650Z,0.55
2022-10-03T00:05:30.338Z,0.50
2022-10-03T00:08:19.630Z,0.40
2022-10-03T00:11:04.170Z,1.55
2022-10-03T00:14:02.135Z,0.30
2022-10-03T00:16:39.728Z,1.35
2022-10-03T00:19:22.718Z,0.52
2022-10-03T00:22:03.042Z,0.55
2022-10-03T00:24:37.070Z,1.00
2022-10-03T00:27:10.493Z,0.52
2022-10-03T00:29:52.393Z,0.40
2022-10-03T00:32:26.735Z,0.32
2022-10-03T00:35:03.670Z,0.55
2022-10-03T00:38:17.465Z,1.20
2022-10-03T00:41:20.705Z,0.82
2022-10-03T00:44:10.183Z,0.20
2022-10-03T00:47:09.797Z,0.40
2022-10-03T00:49:55.816Z,0.52
2022-10-03T00:52:48.480Z,0.40
2022-10-03T00:55:18.927Z,0.30
2022-10-03T00:58:19.998Z,1.98
2022-10-03T01:00:51.598Z,0.57
2022-10-03T01:03:39.702Z,1.95
2022-10-03T01:06:32.805Z,1.10
2022-10-03T01:09:21.583Z,0.43
2022-10-03T01:12:02.780Z,0.60
2022-10-03T01:14:50.266Z,0.62
2022-10-03T01:17:25.267Z,0.57
2022-10-03T01:20:09.610Z,0.60
2022-10-03T01:23:14.767Z,0.55
2022-10-03T01:25:53.589Z,0.50
2022-10-03T01:29:00.513Z,0.62
2022-10-03T01:31:39.857Z,0.73
2022-10-03T01:34:47.692Z,1.45
2022-10-03T01:37:33.964Z,0.60
2022-10-03T01:40:09.998Z,0.85
2022-10-03T01:42:51.723Z,1.40
2022-10-03T01:45:48.714Z,0.40
2022-10-03T01:48:37.928Z,1.33
2022-10-03T01:51:18.243Z,0.80
2022-10-03T01:53:49.227Z,1.00
2022-10-03T01:56:22.432Z,1.25
2022-10-03T01:59:07.897Z,1.08
2022-10-03T02:01:54.098Z,1.23
2022-10-03T02:04:46.458Z,2.37
2022-10-03T02:07:23.321Z,1.85
2022-10-03T02:10:06.017Z,3.15
2022-10-03T02:12:40.969Z,0.50
2022-10-03T02:15:19.962Z,0.73
2022-10-03T02:18:01.601Z,1.55
2022-10-03T02:20:50.643Z,1.70
2022-10-03T02:23:25.680Z,0.85
2022-10-03T02:26:30.905Z,1.33
2022-10-03T02:29:16.197Z,0.50
2022-10-03T02:32:14.806Z,0.57
2022-10-03T02:35:01.281Z,1.37
2022-10-03T02:38:07.920Z,0.43
2022-10-03T02:40:53.553Z,2.10
2022-10-03T02:43:44.458Z,0.80
2022-10-03T02:46:20.441Z,1.58
2022-10-03T02:49:38.771Z,2.37
2022-10-03T02:52:40.333Z,2.37
2022-10-03T02:55:44.883Z,3.20
2022-10-03T02:58:46.445Z,0.52
2022-10-03T03:01:35.995Z,1.77
2022-10-03T03:04:38.467Z,0.65
2022-10-03T03:07:43.346Z,1.03
2022-10-03T03:10:20.087Z,1.58
2022-10-03T03:13:08.268Z,3.43
2022-10-03T03:16:06.522Z,0.90
2022-10-03T03:19:05.651Z,2.92
2022-10-03T03:21:52.555Z,2.92
2022-10-03T03:24:38.853Z,4.93
2022-10-03T03:27:18.330Z,2.00
2022-10-03T03:30:03.400Z,4.03
2022-10-03T03:32:32.186Z,4.97
2022-10-03T03:35:19.317Z,1.08
2022-10-03T03:37:58.944Z,0.80
2022-10-03T03:40:41.492Z,1.83
2022-10-03T03:43:12.099Z,2.33
2022-10-03T03:45:47.091Z,2.47
2022-10-03T03:48:44.135Z,2.57
2022-10-03T03:51:37.581Z,1.48
2022-10-03T03:54:33.972Z,1.55
2022-10-03T03:57:34.189Z,2.30
2022-10-03T04:00:30.611Z,1.35
2022-10-03T04:03:26.800Z,2.93
2022-10-03T04:06:08.887Z,0.90
2022-10-03T04:08:45.810Z,1.17
2022-10-03T04:11:30.751Z,2.50
2022-10-03T04:14:25.831Z,1.97
2022-10-03T04:17:39.078Z,1.17
2022-10-03T04:20:20.100Z,1.23
2022-10-03T04:23:11.066Z,1.73
2022-10-03T04:26:07.780Z,2.25
2022-10-03T04:28:36.815Z,2.55
2022-10-03T04:31:44.090Z,2.13
2022-10-03T04:34:24.265Z,3.33
2022-10-03T04:36:57.963Z,2.67
2022-10-03T04:39:50.645Z,2.43
2022-10-03T04:42:47.454Z,1.53
2022-10-03T04:45:29.859Z,1.90
2022-10-03T04:48:09.136Z,2.70
2022-10-03T04:50:58.538Z,1.40
2022-10-03T04:53:47.302Z,1.30
2022-10-03T04:56:36.203Z,1.43
2022-10-03T04:59:22.372Z,3.97
2022-10-03T05:02:16.287Z,1.53
2022-10-03T05:05:01.976Z,3.10
2022-10-03T05:07:32.583Z,2.33
2022-10-03T05:10:37.596Z,1.50
2022-10-03T05:13:13.882Z,3.00
2022-10-03T05:16:03.507Z,3.43
2022-10-03T05:18:55.849Z,3.80
2022-10-03T05:21:59.129Z,3.50
2022-10-03T05:24:39.884Z,3.07
2022-10-03T05:27:38.276Z,4.30
2022-10-03T05:30:36.521Z,3.77
2022-10-03T05:33:11.453Z,4.33
2022-10-03T05:36:07.430Z,4.13
2022-10-03T05:38:54.280Z,4.10
2022-10-03T05:41:36.702Z,5.87
2022-10-03T05:44:20.411Z,2.40
2022-10-03T05:46:57.283Z,5.40
2022-10-03T05:49:46.394Z,3.37
2022-10-03T05:52:44.757Z,3.97
2022-10-03T05:55:37.828Z,3.07
2022-10-03T05:58:13.913Z,3.77
2022-10-03T06:01:06.543Z,2.50
2022-10-03T06:03:57.815Z,2.53
2022-10-03T06:06:36.229Z,2.17
2022-10-03T06:09:13.953Z,3.83
2022-10-03T06:12:01.307Z,4.57
2022-10-03T06:14:28.871Z,2.00
2022-10-03T06:17:23.722Z,2.20
2022-10-03T06:19:55.897Z,4.07
2022-10-03T06:22:51.225Z,5.07
2022-10-03T06:26:12.743Z,3.87
2022-10-03T06:29:03.472Z,5.93
2022-10-03T06:31:43.842Z,3.33
2022-10-03T06:34:41.668Z,2.78
2022-10-03T06:37:39.902Z,3.73
2022-10-03T06:40:44.828Z,3.97
2022-10-03T06:43:21.108Z,3.07
2022-10-03T06:46:06.892Z,3.83
2022-10-03T06:48:34.559Z,3.30
2022-10-03T06:51:02.224Z,2.63
2022-10-03T06:53:32.608Z,5.07
2022-10-03T06:56:33.152Z,3.77
2022-10-03T06:59:21.143Z,3.30
2022-10-03T07:02:15.175Z,3.20
2022-10-03T07:05:10.490Z,2.27
2022-10-03T07:07:46.923Z,4.60
2022-10-03T07:10:39.158Z,4.57
2022-10-03T07:13:16.443Z,3.53
2022-10-03T07:16:25.456Z,4.17
2022-10-03T07:19:21.408Z,2.77
2022-10-03T07:22:12.271Z,3.13
2022-10-03T07:25:19.823Z,1.83
2022-10-03T07:28:08.896Z,5.00
2022-10-03T07:30:57.798Z,2.23
2022-10-03T07:33:39.113Z,3.00
2022-10-03T07:36:42.083Z,3.67
2022-10-03T07:39:45.395Z,4.47
2022-10-03T07:42:22.323Z,2.70
2022-10-03T07:44:58.290Z,2.60
2022-10-03T07:47:47.280Z,1.67
2022-10-03T07:50:40.991Z,1.45
2022-10-03T07:53:53.105Z,3.40
2022-10-03T07:56:33.692Z,3.63
2022-10-03T07:59:39.406Z,2.27
2022-10-03T08:02:16.740Z,4.53
2022-10-03T08:04:56.376Z,5.32
2022-10-03T08:07:30.448Z,1.45
2022-10-03T08:10:40.890Z,4.65
2022-10-03T08:13:30.105Z,3.12
2022-10-03T08:16:15.042Z,4.47
2022-10-03T08:18:57.870Z,2.15
2022-10-03T08:21:36.996Z,1.30
2022-10-03T08:24:29.686Z,3.60
2022-10-03T08:27:15.693Z,1.83
2022-10-03T08:30:20.127Z,3.62
2022-10-03T08:33:06.716Z,3.15
2022-10-03T08:35:56.133Z,2.00
2022-10-03T08:38:35.498Z,1.70
2022-10-03T08:41:37.589Z,2.05
2022-10-03T08:44:36.411Z,3.83
2022-10-03T08:47:26.446Z,1.90
2022-10-03T08:50:28.611Z,2.33
2022-10-03T08:53:21.717Z,3.10
2022-10-03T08:55:56.833Z,4.22
2022-10-03T08:58:30.159Z,6.07
2022-10-03T09:01:13.456Z,4.57
2022-10-03T09:04:08.192Z,4.47
2022-10-03T09:10:00.164Z,4.93
2022-10-03T09:13:01.840Z,2.70
2022-10-03T09:15:44.516Z,3.60
2022-10-03T09:18:36.028Z,3.05
2022-10-03T09:21:08.155Z,1.92
2022-10-03T09:23:57.406Z,2.92
2022-10-03T09:26:54.295Z,2.78
2022-10-03T09:29:40.187Z,3.60
2022-10-03T09:32:26.442Z,2.70
2022-10-03T09:35:25.137Z,2.75
2022-10-03T09:38:04.867Z,3.12
2022-10-03T09:41:00.308Z,2.87
2022-10-03T09:43:36.830Z,4.65
2022-10-03T09:46:26.563Z,2.65
2022-10-03T09:49:16.365Z,3.08
2022-10-03T09:51:59.097Z,6.90
2022-10-03T09:55:14.827Z,1.87
2022-10-03T09:58:01.317Z,3.47
2022-10-03T10:00:56.856Z,5.15
2022-10-03T10:03:43.679Z,2.08
2022-10-03T10:06:32.364Z,2.92
2022-10-03T10:09:53.757Z,3.15
2022-10-03T10:12:58.798Z,2.90
2022-10-03T10:15:32.213Z,3.53
2022-10-03T10:18:41.124Z,3.83
2022-10-03T10:21:26.991Z,3.90
2022-10-03T10:24:28.599Z,3.53
2022-10-03T10:27:20.975Z,2.80
2022-10-03T10:30:05.278Z,1.73
2022-10-03T10:33:18.074Z,3.80
2022-10-03T10:35:48.669Z,2.55
2022-10-03T10:38:28.309Z,3.83
2022-10-03T10:41:20.352Z,3.90
2022-10-03T10:44:06.714Z,1.60
2022-10-03T10:46:56.158Z,2.35
2022-10-03T10:49:29.891Z,4.97
2022-10-03T10:52:35.195Z,2.55
2022-10-03T10:55:33.204Z,2.25
2022-10-03T10:58:28.870Z,2.45
2022-10-03T11:01:31.614Z,3.20
2022-10-03T11:04:21.208Z,2.28
2022-10-03T11:07:18.330Z,3.62
2022-10-03T11:10:04.694Z,3.10
2022-10-03T11:12:45.173Z,2.12
2022-10-03T11:15:44.502Z,1.25
2022-10-03T11:18:49.727Z,2.33
2022-10-03T11:21:54.387Z,2.42
2022-10-03T11:24:41.412Z,2.05
2022-10-03T11:27:40.100Z,1.55
2022-10-03T11:30:24.328Z,2.40
2022-10-03T11:33:19.985Z,2.40
2022-10-03T11:36:39.169Z,2.60
2022-10-03T11:39:16.511Z,1.87
2022-10-03T11:41:53.251Z,2.92
2022-10-03T11:44:35.394Z,1.60
2022-10-03T11:47:45.153Z,2.42
2022-10-03T11:50:52.605Z,1.73
2022-10-03T11:53:37.741Z,2.05
2022-10-03T11:56:30.348Z,1.35
2022-10-03T11:58:57.976Z,4.78
2022-10-03T12:01:40.988Z,2.17
2022-10-03T12:04:29.477Z,2.28
2022-10-03T12:07:19.460Z,2.62
2022-10-03T12:09:56.229Z,1.90
2022-10-03T12:12:39.148Z,2.03
2022-10-03T12:15:25.562Z,2.47
2022-10-03T12:18:16.422Z,2.00
2022-10-03T12:21:22.247Z,3.17
2022-10-03T12:24:07.162Z,1.75
2022-10-03T12:27:05.752Z,1.27
2022-10-03T12:29:35.157Z,1.77
2022-10-03T12:32:34.194Z,1.62
2022-10-03T12:35:21.158Z,2.47
2022-10-03T12:38:24.479Z,2.47
2022-10-03T12:41:19.475Z,1.67
2022-10-03T12:44:16.801Z,3.22
2022-10-03T12:46:51.704Z,4.40
2022-10-03T12:49:26.522Z,3.20
2022-10-03T12:51:57.697Z,3.40
2022-10-03T12:54:35.889Z,3.35
2022-10-03T12:57:34.656Z,3.03
2022-10-03T13:00:16.562Z,2.12
2022-10-03T13:02:48.565Z,2.83
2022-10-03T13:05:56.429Z,2.95
2022-10-03T13:08:52.270Z,3.70
2022-10-03T13:11:26.948Z,2.55
2022-10-03T13:14:29.365Z,3.25
2022-10-03T13:17:01.201Z,2.83
2022-10-03T13:19:44.558Z,3.15
2022-10-03T13:22:36.722Z,2.75
2022-10-03T13:25:23.785Z,2.85
2022-10-03T13:27:59.734Z,3.28
2022-10-03T13:30:32.405Z,3.12
2022-10-03T13:33:07.893Z,2.87
2022-10-03T13:35:55.207Z,2.62
2022-10-03T13:38:41.490Z,2.55
2022-10-03T13:41:40.915Z,3.20
2022-10-03T13:44:30.083Z,1.08
2022-10-03T13:47:04.418Z,1.87
2022-10-03T13:49:44.811Z,2.62
2022-10-03T13:52:19.176Z,3.53
2022-10-03T13:54:52.590Z,2.83
2022-10-03T13:57:25.886Z,2.80
2022-10-03T14:00:16.961Z,3.87
2022-10-03T14:02:56.895Z,3.50
2022-10-03T14:05:42.965Z,2.72
2022-10-03T14:08:32.426Z,4.07
2022-10-03T14:11:12.230Z,2.55
2022-10-03T14:14:02.351Z,2.65
2022-10-03T14:16:32.370Z,3.40
2022-10-03T14:19:13.245Z,2.33
2022-10-03T14:21:44.806Z,2.05
2022-10-03T14:24:28.742Z,2.30
2022-10-03T14:27:23.988Z,3.58
2022-10-03T14:30:08.237Z,2.08
2022-10-03T14:32:55.335Z,2.62
2022-10-03T14:35:45.271Z,1.80
2022-10-03T14:38:57.895Z,3.00
2022-10-03T14:42:07.541Z,4.53
2022-10-03T14:44:45.843Z,3.00
2022-10-03T14:47:15.194Z,3.92
2022-10-03T14:49:59.377Z,3.03
2022-10-03T14:52:45.784Z,3.78
2022-10-03T14:55:20.615Z,2.03
2022-10-03T14:58:11.050Z,3.87
2022-10-03T15:01:02.991Z,3.28
2022-10-03T15:03:34.718Z,2.80
2022-10-03T15:06:11.130Z,2.12
2022-10-03T15:08:47.210Z,6.00
2022-10-03T15:11:16.025Z,3.80
2022-10-03T15:13:52.813Z,2.67
2022-10-03T15:16:21.678Z,3.87
2022-10-03T15:19:06.370Z,4.47
2022-10-03T15:21:35.035Z,1.95
2022-10-03T15:24:05.000Z,8.35
2022-10-03T15:26:36.121Z,9.02
2022-10-03T15:29:05.701Z,4.18
2022-10-03T15:31:46.834Z,3.33
2022-10-03T15:34:27.156Z,2.83
2022-10-03T15:36:57.360Z,2.42
2022-10-03T15:39:30.796Z,3.55
2022-10-03T15:42:09.447Z,3.08
2022-10-03T15:45:13.401Z,9.75
2022-10-03T15:47:45.461Z,7.70
2022-10-03T15:50:31.049Z,2.08
2022-10-03T15:53:12.688Z,2.03
2022-10-03T15:55:51.744Z,2.50
2022-10-03T15:58:26.644Z,4.12
2022-10-03T16:01:16.531Z,2.97
2022-10-03T16:03:52.503Z,3.65
2022-10-03T16:07:05.518Z,3.37
2022-10-03T16:09:39.167Z,5.43
2022-10-03T16:12:34.956Z,1.80
2022-10-03T16:15:16.219Z,3.17
2022-10-03T16:17:50.881Z,2.47
2022-10-03T16:20:23.385Z,4.72
2022-10-03T16:23:00.911Z,4.03
2022-10-03T16:25:30.280Z,2.30
2022-10-03T16:28:04.517Z,2.72
2022-10-03T16:31:06.672Z,2.15
2022-10-03T16:33:39.238Z,2.37
2022-10-03T16:36:11.100Z,1.73
2022-10-03T16:38:40.299Z,1.70
2022-10-03T16:41:29.604Z,2.20
2022-10-03T16:44:19.131Z,2.60
2022-10-03T16:46:47.008Z,2.03
2022-10-03T16:49:45.351Z,2.87
2022-10-03T16:52:17.102Z,5.20
2022-10-03T16:54:45.036Z,3.60
2022-10-03T16:57:17.897Z,2.70
2022-10-03T16:59:50.504Z,3.65
2022-10-03T17:02:25.466Z,2.08
2022-10-03T17:04:54.974Z,2.28
2022-10-03T17:07:24.779Z,4.25
2022-10-03T17:09:59.055Z,3.40
2022-10-03T17:12:32.874Z,3.47
2022-10-03T17:15:15.981Z,4.55
2022-10-03T17:18:01.284Z,4.22
2022-10-03T17:20:49.288Z,3.50
2022-10-03T17:23:19.961Z,7.22
2022-10-03T17:26:18.190Z,3.90
2022-10-03T17:28:55.771Z,4.12
2022-10-03T17:31:35.189Z,5.55
2022-10-03T17:34:12.888Z,5.95
2022-10-03T17:36:51.949Z,6.55
2022-10-03T17:39:38.109Z,4.70
2022-10-03T17:42:33.189Z,3.95
2022-10-03T17:45:39.929Z,3.22
2022-10-03T17:48:26.287Z,5.10
2022-10-03T17:51:24.472Z,5.85
2022-10-03T17:53:57.303Z,4.22
2022-10-03T17:56:25.714Z,6.40
2022-10-03T17:58:57.593Z,5.00
2022-10-03T18:01:32.248Z,6.12
2022-10-03T18:04:06.207Z,5.35
2022-10-03T18:06:38.908Z,7.43
2022-10-03T18:09:15.545Z,6.05
2022-10-03T18:11:44.099Z,8.48
2022-10-03T18:14:17.613Z,8.87
2022-10-03T18:17:05.939Z,7.97
2022-10-03T18:19:42.487Z,6.53
2022-10-03T18:22:13.548Z,5.90
2022-10-03T18:25:35.162Z,7.85
2022-10-03T18:28:18.100Z,6.60
2022-10-03T18:30:48.539Z,7.15
2022-10-03T18:33:18.721Z,5.40
2022-10-03T18:35:47.422Z,5.87
2022-10-03T18:38:23.329Z,5.53
2022-10-03T18:40:58.873Z,8.30
2022-10-03T18:43:46.266Z,5.80
2022-10-03T18:46:20.068Z,6.28
2022-10-03T18:49:33.004Z,5.53
2022-10-03T18:52:20.310Z,5.78
2022-10-03T18:55:04.612Z,6.72
2022-10-03T18:57:50.909Z,8.47
2022-10-03T19:00:26.167Z,8.37
2022-10-03T19:03:05.296Z,6.33
2022-10-03T19:05:35.363Z,5.07
2022-10-03T19:08:20.488Z,7.70
2022-10-03T19:10:56.000Z,9.17
2022-10-03T19:13:48.462Z,5.90
2022-10-03T19:16:19.221Z,9.40
2022-10-03T19:19:14.061Z,6.97
2022-10-03T19:21:42.219Z,7.77
2022-10-03T19:24:34.450Z,9.90
2022-10-03T19:27:12.407Z,8.27
2022-10-03T19:29:45.574Z,7.93
2022-10-03T19:32:18.340Z,7.33
2022-10-03T19:34:46.433Z,6.40
2022-10-03T19:37:17.776Z,6.20
2022-10-03T19:39:45.665Z,7.27
2022-10-03T19:42:31.796Z,7.77
2022-10-03T19:45:00.119Z,5.17
2022-10-03T19:47:34.650Z,5.03
2022-10-03T19:50:27.173Z,9.67
2022-10-03T19:52:54.883Z,6.63
2022-10-03T19:55:26.050Z,4.73
2022-10-03T19:57:56.037Z,5.30
2022-10-03T20:00:27.089Z,7.10
2022-10-03T20:03:07.857Z,5.20
2022-10-03T20:05:52.433Z,8.10
2022-10-03T20:08:48.928Z,8.73
2022-10-03T20:11:28.765Z,7.17
2022-10-03T20:13:56.710Z,7.70
2022-10-03T20:16:26.339Z,6.63
2022-10-03T20:18:55.230Z,10.50
2022-10-03T20:21:26.679Z,7.67
2022-10-03T20:23:55.552Z,9.07
2022-10-03T20:26:37.151Z,12.10
2022-10-03T20:29:17.144Z,10.43
2022-10-03T20:31:44.979Z,11.77
2022-10-03T20:34:17.290Z,11.10
2022-10-03T20:36:50.523Z,11.30
2022-10-03T20:39:22.084Z,9.37
2022-10-03T20:42:06.438Z,9.73
2022-10-03T20:44:56.569Z,8.07
2022-10-03T20:47:53.517Z,8.50
2022-10-03T20:50:30.336Z,7.87
2022-10-03T20:53:02.612Z,7.53
2022-10-03T20:55:35.776Z,8.60
2022-10-03T20:58:14.721Z,8.87
2022-10-03T21:00:50.471Z,9.40
2022-10-03T21:03:39.459Z,7.37
2022-10-03T21:06:21.497Z,8.10
2022-10-03T21:08:49.792Z,9.27
2022-10-03T21:11:17.549Z,10.27
2022-10-03T21:13:59.974Z,8.10
2022-10-03T21:16:35.881Z,8.20
2022-10-03T21:19:04.860Z,8.17
2022-10-03T21:21:43.066Z,6.33
2022-10-03T21:24:18.772Z,10.30
2022-10-03T21:26:53.708Z,7.40
2022-10-03T21:29:30.348Z,6.47
2022-10-03T21:32:03.986Z,7.67
2022-10-03T21:34:33.981Z,8.27
2022-10-03T21:37:06.889Z,11.03
2022-10-03T21:39:53.299Z,6.70
2022-10-03T21:42:30.246Z,5.73
2022-10-03T21:44:57.829Z,5.37
2022-10-03T21:47:45.395Z,5.50
2022-10-03T21:50:25.626Z,7.90
2022-10-03T21:53:17.341Z,5.70
2022-10-03T21:55:54.109Z,4.27
2022-10-03T21:58:37.008Z,5.83
2022-10-03T22:01:36.908Z,5.07
2022-10-03T22:04:35.540Z,4.93
2022-10-03T22:07:11.689Z,6.93
2022-10-03T22:09:48.683Z,5.23
2022-10-03T22:12:16.753Z,5.63
2022-10-03T22:14:47.225Z,5.33
2022-10-03T22:17:26.407Z,5.20
2022-10-03T22:20:12.647Z,5.93
2022-10-03T22:23:05.031Z,5.40
2022-10-03T22:25:54.494Z,8.87
2022-10-03T22:28:47.209Z,5.70
2022-10-03T22:31:18.593Z,4.63
2022-10-03T22:34:10.674Z,5.27
2022-10-03T22:36:38.693Z,4.73
2022-10-03T22:39:14.353Z,5.00
2022-10-03T22:41:42.968Z,7.77
2022-10-03T22:44:11.546Z,5.73
2022-10-03T22:46:40.332Z,5.53
2022-10-03T22:49:17.212Z,8.00
2022-10-03T22:51:45.014Z,7.03
2022-10-03T22:54:14.399Z,5.60
2022-10-03T22:56:56.246Z,5.90
2022-10-03T22:59:32.648Z,8.00
2022-10-03T23:02:01.592Z,6.60
2022-10-03T23:04:43.518Z,6.23
2022-10-03T23:07:20.238Z,6.53
2022-10-03T23:09:57.456Z,5.87
2022-10-03T23:12:25.164Z,5.33
2022-10-03T23:14:53.040Z,6.80
2022-10-03T23:17:35.103Z,5.33
2022-10-03T23:20:10.353Z,7.27
2022-10-03T23:22:38.113Z,3.90
2022-10-03T23:25:17.092Z,5.77
2022-10-03T23:27:58.284Z,5.03
2022-10-03T23:30:25.945Z,5.43
2022-10-03T23:32:55.567Z,6.27
2022-10-03T23:35:32.146Z,5.00
2022-10-03T23:38:00.392Z,6.17
2022-10-03T23:40:39.583Z,5.03
2022-10-03T23:43:07.319Z,4.83
2022-10-03T23:45:35.437Z,6.30
2022-10-03T23:48:16.267Z,3.90
2022-10-03T23:50:47.438Z,6.77
2022-10-03T23:53:39.880Z,7.80
2022-10-03T23:56:24.559Z,5.10
2022-10-03T23:59:04.310Z,6.10
